createdAt,value
2023-02-09T17:58:19.487Z,71.71
2023-02-09T18:00:47.904Z,72.00
2023-02-09T18:03:17.731Z,71.50
2023-02-09T18:05:46.460Z,70.75
2023-02-09T18:08:14.678Z,70.33
2023-02-09T18:10:42.386Z,69.85
2023-02-09T18:13:10.725Z,69.57
2023-02-09T18:15:40.507Z,69.37
2023-02-09T18:18:08.217Z,69.01
2023-02-09T18:20:36.084Z,68.94
2023-02-09T18:23:04.728Z,68.65
2023-02-09T18:25:34.078Z,68.57
2023-02-09T18:28:02.111Z,68.67
2023-02-09T18:30:31.980Z,68.52
2023-02-09T18:33:01.799Z,68.55
2023-02-09T18:35:33.112Z,68.66
2023-02-09T18:38:01.678Z,68.54
2023-02-09T18:40:31.981Z,68.58
2023-02-09T18:42:59.896Z,68.72
2023-02-09T18:45:28.018Z,68.57
2023-02-09T18:47:56.010Z,68.81
2023-02-09T18:50:27.141Z,69.06
2023-02-09T18:52:56.177Z,69.00
2023-02-09T18:55:25.584Z,69.00
2023-02-09T18:57:53.753Z,69.08
2023-02-09T19:00:22.141Z,69.10
2023-02-09T19:02:50.500Z,69.36
2023-02-09T19:05:19.471Z,69.39
2023-02-09T19:07:48.567Z,69.36
2023-02-09T19:10:18.481Z,69.62
2023-02-09T19:12:46.292Z,69.66
2023-02-09T19:15:14.738Z,69.87
2023-02-09T19:17:42.933Z,69.75
2023-02-09T19:20:14.066Z,69.96
2023-02-09T19:22:41.815Z,69.93
2023-02-09T19:25:10.918Z,70.32
2023-02-09T19:27:38.843Z,70.36
2023-02-09T19:30:07.157Z,70.38
2023-02-09T19:32:34.913Z,70.66
2023-02-09T19:35:04.422Z,70.74
2023-02-09T19:37:32.110Z,70.62
2023-02-09T19:40:07.179Z,70.89
2023-02-09T19:42:36.308Z,71.25
2023-02-09T19:45:04.351Z,71.03
2023-02-09T19:47:32.404Z,71.30
2023-02-09T19:50:00.126Z,71.37
2023-02-09T19:52:28.698Z,71.29
2023-02-09T19:54:57.903Z,71.52
2023-02-09T19:57:26.038Z,71.44
2023-02-09T19:59:55.371Z,71.60
2023-02-09T20:02:23.066Z,71.55
2023-02-09T20:04:50.845Z,72.07
2023-02-09T20:07:18.941Z,71.82
2023-02-09T20:09:46.943Z,72.15
2023-02-09T20:12:14.893Z,71.97
2023-02-09T20:14:42.547Z,72.26
2023-02-09T20:17:11.757Z,72.19
2023-02-09T20:19:39.906Z,72.20
2023-02-09T20:22:07.575Z,72.59
2023-02-09T20:24:35.448Z,72.80
2023-02-09T20:27:03.285Z,73.08
2023-02-09T20:29:31.189Z,73.38
2023-02-09T20:31:58.837Z,73.56
2023-02-09T20:34:28.489Z,73.52
2023-02-09T20:36:57.391Z,74.19
2023-02-09T20:39:25.015Z,74.27
2023-02-09T20:42:11.522Z,74.48
2023-02-09T20:44:56.906Z,74.27
2023-02-09T20:47:26.017Z,74.61
2023-02-09T20:49:57.737Z,74.68
2023-02-09T20:52:25.469Z,75.23
2023-02-09T20:54:53.261Z,75.32
2023-02-09T20:57:20.927Z,75.23
2023-02-09T20:59:50.161Z,75.77
2023-02-09T21:02:18.116Z,76.27
2023-02-09T21:04:45.842Z,76.64
2023-02-09T21:07:15.335Z,76.71
2023-02-09T21:09:43.211Z,76.89
2023-02-09T21:12:13.836Z,77.38
2023-02-09T21:14:45.041Z,77.62
2023-02-09T21:17:13.011Z,77.98
2023-02-09T21:19:41.072Z,78.15
2023-02-09T21:22:08.831Z,77.98
2023-02-09T21:24:39.182Z,77.35
2023-02-09T21:27:07.348Z,77.27
2023-02-09T21:29:35.514Z,77.82
2023-02-09T21:32:05.336Z,78.24
2023-02-09T21:34:33.133Z,78.00
2023-02-09T21:37:00.860Z,78.64
2023-02-09T21:39:28.598Z,78.62
2023-02-09T21:42:15.260Z,78.36
2023-02-09T21:44:43.211Z,78.23
2023-02-09T21:47:11.254Z,78.32
2023-02-09T21:49:38.965Z,78.27
2023-02-09T21:52:06.616Z,78.49
2023-02-09T21:54:34.405Z,77.98
2023-02-09T21:57:03.851Z,78.10
2023-02-09T21:59:31.643Z,78.01
2023-02-09T22:01:59.306Z,78.10
2023-02-09T22:04:27.171Z,78.70
2023-02-09T22:06:54.866Z,78.85
2023-02-09T22:09:23.972Z,79.53
2023-02-09T22:11:51.707Z,79.46
2023-02-09T22:14:20.790Z,79.16
2023-02-09T22:16:48.422Z,79.49
2023-02-09T22:19:16.180Z,80.09
2023-02-09T22:21:43.916Z,80.47
2023-02-09T22:24:14.163Z,79.96
2023-02-09T22:26:41.908Z,79.59
2023-02-09T22:29:10.159Z,80.15
2023-02-09T22:31:39.189Z,80.54
2023-02-09T22:34:07.320Z,80.54
2023-02-09T22:36:35.780Z,80.95
2023-02-09T22:39:04.044Z,80.65
2023-02-09T22:41:31.969Z,80.49
2023-02-09T22:44:01.207Z,80.19
2023-02-09T22:46:31.274Z,80.13
2023-02-09T22:49:01.850Z,80.73
2023-02-09T22:51:31.613Z,80.57
2023-02-09T22:54:00.119Z,80.57
2023-02-09T22:56:29.151Z,80.42
2023-02-09T22:58:58.009Z,80.36
2023-02-09T23:01:26.056Z,81.21
2023-02-09T23:03:54.059Z,81.50
2023-02-09T23:06:24.591Z,81.08
2023-02-09T23:08:53.334Z,80.84
2023-02-09T23:11:21.249Z,80.55
2023-02-09T23:13:52.828Z,80.47
2023-02-09T23:16:24.730Z,80.54
2023-02-09T23:18:53.595Z,80.20
2023-02-09T23:21:24.111Z,80.27
2023-02-09T23:23:52.090Z,80.50
2023-02-09T23:26:20.911Z,80.99
2023-02-09T23:28:49.120Z,80.36
2023-02-09T23:31:18.505Z,80.28
2023-02-09T23:33:46.389Z,80.80
2023-02-09T23:36:16.430Z,80.23
2023-02-09T23:38:46.538Z,80.91
2023-02-09T23:41:16.236Z,80.53
2023-02-09T23:43:44.389Z,80.91
2023-02-09T23:46:14.154Z,80.15
2023-02-09T23:48:41.907Z,79.54
2023-02-09T23:51:11.897Z,79.71
2023-02-09T23:53:39.771Z,79.24
2023-02-09T23:56:09.080Z,79.28
2023-02-09T23:58:38.737Z,79.32
